Aviation Digital Data Service (ADDS)

Output produced by METARs form (0505 UTC 21 September 2017)
found at http://www.aviationweather.gov/adds/metars/
 
HEAX 210400Z 00000KT CAVOK 24/20 Q1012 NOSIG
TAF HEAX 210500Z 2106/2212 30011KT 9999 FEW020
       
HEBA 210400Z 27006KT 6000 NSC 23/22 Q1013 NOSIG
TAF HEBA 210500Z 2106/2212 30011KT 9999 FEW020
       
HESN 210400Z 36005KT CAVOK 28/10 Q1011 NOSIG
TAF HESN 210500Z 2106/2212 02012KT CAVOK
       
HEAT 210400Z 33011KT CAVOK 22/12 Q1014 NOSIG
TAF HEAT 210500Z 2106/2212 35012KT CAVOK
       
HECA 210430Z 05004KT 1500 R05R/1500 R23L/1500 BR NSC 25/23 Q1013 NOSIG
TAF HECA 210500Z 2106/2212 35008KT CAVOK 
     TEMPO 2106/2108 VRB03KT 4000 BR NSC 
     TEMPO 2115/2121 36008G20KT 
     TEMPO 2200/2208 4000 BR NSC
       
HEAR 210200Z 17002KT CAVOK 20/18 Q1012 NOSIG
TAF HEAR 210500Z 2106/2212 34008KT CAVOK 
     BECMG 2116/2118 VRB03KT 
     BECMG 2207/2209 33009KT
       
HEGN 210400Z 32012KT CAVOK 28/14 Q1011 NOSIG
TAF HEGN 210500Z 2106/2212 35012KT CAVOK
       
HELX 210400Z 00000KT CAVOK 26/14 Q1010 NOSIG
TAF HELX 210500Z 2106/2212 VRB03KT 6000 NSC 
     BECMG 2108/2110 34010KT CAVOK
       
HEMM 210400Z 29008KT 9999 FEW020 22/19 Q1014 NOSIG
TAF HEMM 210500Z 2106/2212 32015KT 9999 FEW020
       
HEPS 210400Z 26004KT CAVOK 26/24 Q1013 NOSIG
TAF HEPS 210500Z 2106/2212 34010KT CAVOK 
     TEMPO 2106/2108 VRB03KT 4000 BR NSC
       
HESH 210400Z 36010KT CAVOK 29/12 Q1010 NOSIG
TAF HESH 210500Z 2106/2212 01013KT CAVOK
       
TAF HETB 210500Z 2106/2212 02012KT CAVOK 
     BECMG 2118/2120 VRB03KT 
     BECMG 2206/2208 05014KT